createdAt,value
2017-12-08T00:01:24.640Z,1.90
2017-12-08T00:03:52.709Z,2.10
2017-12-08T00:06:20.780Z,2.40
2017-12-08T00:08:49.875Z,2.10
2017-12-08T00:11:18.866Z,2.50
2017-12-08T00:13:46.834Z,2.20
2017-12-08T00:16:14.711Z,2.20
2017-12-08T00:18:43.691Z,1.43
2017-12-08T00:21:11.663Z,1.87
2017-12-08T00:23:39.728Z,2.20
2017-12-08T00:26:07.492Z,2.17
2017-12-08T00:28:36.537Z,2.70
2017-12-08T00:31:04.451Z,2.10
2017-12-08T00:33:32.420Z,2.30
2017-12-08T00:36:00.331Z,2.03
2017-12-08T00:38:29.006Z,2.40
2017-12-08T00:40:56.636Z,2.30
2017-12-08T00:43:24.145Z,2.07
2017-12-08T00:45:51.666Z,2.50
2017-12-08T00:48:20.098Z,2.73
2017-12-08T00:50:48.357Z,2.67
2017-12-08T00:53:17.613Z,2.40
2017-12-08T00:55:45.876Z,2.10
2017-12-08T00:58:13.393Z,2.00
2017-12-08T01:00:41.658Z,2.13
2017-12-08T01:03:09.941Z,2.00
2017-12-08T01:05:39.170Z,2.20
2017-12-08T01:08:06.689Z,2.70
2017-12-08T01:10:34.945Z,2.57
2017-12-08T01:13:02.465Z,2.50
2017-12-08T01:15:29.968Z,2.53
2017-12-08T01:17:57.467Z,2.50
2017-12-08T01:20:24.986Z,2.50
2017-12-08T01:22:54.957Z,2.70
2017-12-08T01:25:22.478Z,2.40
2017-12-08T01:27:49.981Z,2.70
2017-12-08T01:30:17.497Z,2.13
2017-12-08T01:32:44.993Z,2.63
2017-12-08T01:35:12.509Z,2.60
2017-12-08T01:37:40.773Z,1.93
2017-12-08T01:40:09.058Z,3.30
2017-12-08T01:42:37.321Z,2.27
2017-12-08T01:45:05.612Z,2.77
2017-12-08T01:47:33.106Z,3.00
2017-12-08T01:50:00.597Z,2.67
2017-12-08T01:52:28.119Z,2.63
2017-12-08T01:54:56.565Z,2.87
2017-12-08T01:57:24.082Z,2.97
2017-12-08T01:59:51.585Z,3.03
2017-12-08T02:02:19.098Z,2.30
2017-12-08T02:04:47.537Z,3.27
2017-12-08T02:07:15.054Z,2.70
2017-12-08T02:09:43.317Z,2.80
2017-12-08T02:12:11.617Z,3.10
2017-12-08T02:14:39.908Z,2.53
2017-12-08T02:17:07.405Z,2.80
2017-12-08T02:19:34.918Z,2.50
2017-12-08T02:22:02.418Z,3.00
2017-12-08T02:24:29.949Z,2.90
2017-12-08T02:26:57.485Z,2.90
2017-12-08T02:29:26.720Z,2.70
2017-12-08T02:31:54.230Z,2.50
2017-12-08T02:34:22.518Z,2.60
2017-12-08T02:36:50.014Z,2.10
2017-12-08T02:39:17.505Z,2.70
2017-12-08T02:41:45.789Z,2.53
2017-12-08T02:44:14.045Z,2.80
2017-12-08T02:46:42.335Z,2.70
2017-12-08T02:49:10.602Z,2.93
2017-12-08T02:51:38.881Z,2.70
2017-12-08T02:54:07.141Z,2.60
2017-12-08T02:56:37.390Z,2.57
2017-12-08T02:59:05.652Z,2.73
2017-12-08T03:01:33.937Z,2.20
2017-12-08T03:04:02.197Z,2.60
2017-12-08T03:06:30.485Z,2.80
2017-12-08T03:08:58.754Z,2.77
2017-12-08T03:11:33.006Z,2.20
2017-12-08T03:14:00.529Z,3.10
2017-12-08T03:16:29.746Z,2.40
2017-12-08T03:18:57.265Z,2.40
2017-12-08T03:21:24.762Z,2.53
2017-12-08T03:23:52.285Z,2.60
2017-12-08T03:26:19.779Z,2.33
2017-12-08T03:28:47.314Z,2.17
2017-12-08T03:31:15.570Z,2.60
2017-12-08T03:33:43.086Z,2.33
2017-12-08T03:36:10.582Z,2.40
2017-12-08T03:38:38.861Z,2.67
2017-12-08T03:41:07.121Z,2.30
2017-12-08T03:43:34.645Z,2.40
2017-12-08T03:46:02.141Z,2.50
2017-12-08T03:48:30.434Z,2.77
2017-12-08T03:50:58.697Z,2.20
2017-12-08T03:53:27.717Z,2.43
2017-12-08T03:55:56.078Z,2.27
2017-12-08T03:58:24.361Z,2.50
2017-12-08T04:00:52.621Z,2.33
2017-12-08T04:03:20.909Z,1.90
2017-12-08T04:05:49.177Z,2.30
2017-12-08T04:08:17.462Z,2.43
2017-12-08T04:10:45.722Z,2.10
2017-12-08T04:13:13.242Z,2.27
2017-12-08T04:15:40.737Z,1.90
2017-12-08T04:18:08.266Z,2.10
2017-12-08T04:20:35.758Z,2.27
2017-12-08T04:23:04.043Z,2.07
2017-12-08T04:25:32.308Z,2.13
2017-12-08T04:28:00.589Z,2.20
2017-12-08T04:30:28.867Z,2.10
2017-12-08T04:32:57.146Z,2.03
2017-12-08T04:35:24.643Z,2.03
2017-12-08T04:37:54.101Z,1.83
2017-12-08T04:40:22.362Z,2.20
2017-12-08T04:42:50.711Z,2.40
2017-12-08T04:45:18.174Z,1.83
2017-12-08T04:47:45.698Z,2.00
2017-12-08T04:50:13.202Z,2.03
2017-12-08T04:52:40.713Z,2.43
2017-12-08T04:55:08.205Z,2.10
2017-12-08T04:57:36.489Z,1.43
2017-12-08T05:00:04.756Z,2.03
2017-12-08T05:02:32.277Z,2.03
2017-12-08T05:05:00.706Z,1.90
2017-12-08T05:07:28.989Z,1.70
2017-12-08T05:09:57.254Z,2.07
2017-12-08T05:12:24.770Z,1.90
2017-12-08T05:14:52.261Z,2.00
2017-12-08T05:17:21.286Z,2.10
2017-12-08T05:19:48.793Z,2.10
2017-12-08T05:22:16.318Z,2.00
2017-12-08T05:24:43.815Z,2.90
2017-12-08T05:27:11.337Z,1.80
2017-12-08T05:29:38.829Z,2.27
2017-12-08T05:32:06.354Z,1.57
2017-12-08T05:34:33.841Z,1.87
2017-12-08T05:37:01.363Z,1.50
2017-12-08T05:39:28.866Z,2.07
2017-12-08T05:41:57.889Z,2.27
2017-12-08T05:44:25.387Z,1.97
2017-12-08T05:46:52.902Z,1.43
2017-12-08T05:49:20.397Z,1.57
2017-12-08T05:51:47.931Z,1.90
2017-12-08T05:54:15.428Z,1.60
2017-12-08T05:56:42.950Z,2.37
2017-12-08T05:59:11.381Z,1.67
2017-12-08T06:01:39.666Z,2.00
2017-12-08T06:04:08.870Z,1.77
2017-12-08T06:06:37.153Z,2.20
2017-12-08T06:09:04.654Z,1.73
2017-12-08T06:11:32.178Z,1.87
2017-12-08T06:13:59.678Z,2.10
2017-12-08T06:16:27.174Z,1.90
2017-12-08T06:18:56.420Z,2.37
2017-12-08T06:21:23.917Z,1.47
2017-12-08T06:23:52.208Z,1.80
2017-12-08T06:26:21.730Z,1.87
2017-12-08T06:28:49.229Z,2.00
2017-12-08T06:31:16.776Z,1.67
2017-12-08T06:33:44.302Z,1.50
2017-12-08T06:36:11.797Z,1.67
2017-12-08T06:38:39.321Z,1.93
2017-12-08T06:41:06.814Z,1.90
2017-12-08T06:43:34.330Z,1.70
2017-12-08T06:46:01.838Z,1.60
2017-12-08T06:48:30.866Z,1.33
2017-12-08T06:50:59.337Z,1.97
2017-12-08T06:53:27.622Z,1.33
2017-12-08T06:55:56.142Z,2.03
2017-12-08T06:58:24.086Z,1.77
2017-12-08T07:00:52.053Z,1.20
2017-12-08T07:03:20.021Z,1.67
2017-12-08T07:05:47.989Z,1.70
2017-12-08T07:08:15.957Z,2.00
2017-12-08T07:10:43.896Z,2.07
2017-12-08T07:13:11.996Z,1.70
2017-12-08T07:15:39.918Z,1.77
2017-12-08T07:18:07.828Z,1.80
2017-12-08T07:20:35.501Z,1.70
2017-12-08T07:23:03.661Z,1.63
2017-12-08T07:25:31.596Z,23.53
2017-12-08T07:27:59.903Z,17.43
2017-12-08T07:30:28.076Z,77.03
2017-12-08T07:32:56.046Z,48.67
2017-12-08T07:35:24.830Z,124.17
2017-12-08T07:37:53.720Z,51.60
2017-12-08T07:40:22.097Z,168.43
2017-12-08T07:42:51.191Z,136.13
2017-12-08T07:45:19.161Z,113.63
2017-12-08T07:47:47.024Z,78.77
2017-12-08T07:50:14.614Z,75.80
2017-12-08T07:52:42.958Z,80.30
2017-12-08T07:55:10.457Z,85.07
2017-12-08T07:57:37.993Z,74.77
2017-12-08T08:00:05.501Z,76.23
2017-12-08T08:02:34.753Z,76.00
2017-12-08T08:05:02.262Z,67.50
2017-12-08T08:07:31.727Z,64.43
2017-12-08T08:09:59.230Z,62.10
2017-12-08T08:12:26.734Z,64.27
2017-12-08T08:14:54.270Z,55.57
2017-12-08T08:17:23.749Z,58.17
2017-12-08T08:19:51.257Z,54.77
2017-12-08T08:22:18.786Z,55.13
2017-12-08T08:24:46.293Z,55.30
2017-12-08T08:27:13.817Z,51.43
2017-12-08T08:29:41.349Z,49.50
2017-12-08T08:32:08.857Z,46.60
2017-12-08T08:34:37.129Z,44.43
2017-12-08T08:37:06.390Z,47.07
2017-12-08T08:39:33.893Z,42.27
2017-12-08T08:42:02.193Z,41.30
2017-12-08T08:44:29.713Z,39.10
2017-12-08T08:46:57.245Z,41.00
2017-12-08T08:49:24.757Z,38.13
2017-12-08T08:51:53.030Z,38.23
2017-12-08T08:54:22.521Z,40.67
2017-12-08T08:56:50.797Z,34.60
2017-12-08T08:59:20.050Z,34.73
2017-12-08T09:01:47.557Z,30.60
2017-12-08T09:04:15.853Z,28.83
2017-12-08T09:06:43.357Z,31.53
2017-12-08T09:09:12.825Z,29.13
2017-12-08T09:11:40.325Z,29.97
2017-12-08T09:14:07.853Z,25.97
2017-12-08T09:16:36.315Z,27.53
2017-12-08T09:19:03.818Z,25.60
2017-12-08T09:21:33.293Z,27.13
2017-12-08T09:24:00.794Z,23.47
2017-12-08T09:26:28.322Z,22.60
2017-12-08T09:28:55.829Z,21.70
2017-12-08T09:31:24.126Z,23.90
2017-12-08T09:33:51.636Z,21.40
2017-12-08T09:36:19.958Z,19.03
2017-12-08T09:38:47.462Z,20.37
2017-12-08T09:41:17.415Z,18.97
2017-12-08T09:43:44.963Z,19.60
2017-12-08T09:46:13.229Z,18.63
2017-12-08T09:48:41.549Z,16.83
2017-12-08T09:51:09.054Z,16.70
2017-12-08T09:53:37.354Z,16.17
2017-12-08T09:56:04.858Z,20.40
2017-12-08T09:58:32.390Z,18.70
2017-12-08T10:00:59.909Z,16.80
2017-12-08T10:03:28.197Z,17.03
2017-12-08T10:05:55.718Z,16.10
2017-12-08T10:08:23.227Z,13.43
2017-12-08T10:10:52.726Z,14.70
2017-12-08T10:13:20.258Z,15.00
2017-12-08T10:15:48.574Z,13.90
2017-12-08T10:18:16.078Z,13.20
2017-12-08T10:20:45.549Z,13.77
2017-12-08T10:23:13.053Z,12.90
2017-12-08T10:25:41.349Z,12.10
2017-12-08T10:28:08.850Z,11.27
2017-12-08T10:30:36.374Z,12.23
2017-12-08T10:33:03.871Z,11.70
2017-12-08T10:35:32.891Z,12.50
2017-12-08T10:38:01.186Z,11.50
2017-12-08T10:40:28.694Z,10.00
2017-12-08T10:42:57.725Z,10.27
2017-12-08T10:45:25.994Z,9.87
2017-12-08T10:47:54.282Z,10.30
2017-12-08T10:50:21.850Z,10.23
2017-12-08T10:52:50.105Z,10.70
2017-12-08T10:55:17.617Z,10.37
2017-12-08T10:57:45.140Z,8.83
2017-12-08T11:00:12.637Z,9.37
2017-12-08T11:02:41.097Z,10.20
2017-12-08T11:05:08.627Z,9.73
2017-12-08T11:07:36.130Z,8.67
2017-12-08T11:10:03.651Z,9.20
2017-12-08T11:12:31.150Z,8.93
2017-12-08T11:15:00.189Z,7.63
2017-12-08T11:17:27.694Z,8.10
2017-12-08T11:19:55.222Z,8.70
2017-12-08T11:22:22.718Z,8.57
2017-12-08T11:24:52.189Z,8.80
2017-12-08T11:27:19.691Z,8.03
2017-12-08T11:29:47.978Z,8.30
2017-12-08T11:32:16.246Z,7.20
2017-12-08T11:34:44.522Z,6.67
2017-12-08T11:37:14.778Z,7.00
2017-12-08T11:39:42.275Z,6.43
2017-12-08T11:42:09.794Z,7.40
2017-12-08T11:44:37.290Z,8.03
2017-12-08T11:47:04.813Z,7.10
2017-12-08T11:49:32.309Z,7.60
2017-12-08T11:51:59.833Z,7.07
2017-12-08T11:54:27.326Z,8.10
2017-12-08T11:56:55.602Z,6.40
2017-12-08T11:59:24.636Z,7.07
2017-12-08T12:01:52.148Z,6.37
2017-12-08T12:04:19.669Z,6.37
2017-12-08T12:06:47.168Z,6.40
2017-12-08T12:09:15.458Z,6.20
2017-12-08T12:11:43.752Z,6.77
2017-12-08T12:14:13.250Z,6.80
2017-12-08T12:16:40.761Z,6.87
2017-12-08T12:19:08.286Z,5.63
2017-12-08T12:21:35.809Z,5.90
2017-12-08T12:24:04.098Z,5.83
2017-12-08T12:26:31.607Z,5.57
2017-12-08T12:28:59.898Z,4.93
2017-12-08T12:31:28.200Z,5.03
2017-12-08T12:33:56.465Z,5.47
2017-12-08T12:36:25.658Z,6.60
2017-12-08T12:38:53.933Z,6.30
2017-12-08T12:41:22.222Z,5.70
2017-12-08T12:43:50.489Z,4.80
2017-12-08T12:46:18.777Z,4.60
2017-12-08T12:48:46.305Z,5.40
2017-12-08T12:51:13.850Z,5.70
2017-12-08T12:53:41.367Z,5.27
2017-12-08T12:56:08.866Z,4.60
2017-12-08T12:58:36.393Z,4.83
2017-12-08T13:01:03.914Z,4.30
2017-12-08T13:03:32.202Z,4.83
2017-12-08T13:05:59.701Z,4.57
2017-12-08T13:08:27.223Z,4.77
2017-12-08T13:10:54.726Z,5.53
2017-12-08T13:13:22.250Z,4.80
2017-12-08T13:15:49.742Z,4.30
2017-12-08T13:18:17.270Z,4.40
2017-12-08T13:20:44.771Z,4.23
2017-12-08T13:23:13.037Z,3.90
2017-12-08T13:25:41.331Z,4.50
2017-12-08T13:28:09.597Z,4.30
2017-12-08T13:30:37.886Z,5.03
2017-12-08T13:33:06.158Z,4.60
2017-12-08T13:35:34.441Z,4.13
2017-12-08T13:38:02.697Z,4.37
2017-12-08T13:40:30.977Z,4.10
2017-12-08T13:42:59.245Z,4.10
2017-12-08T13:45:27.525Z,3.37
2017-12-08T13:47:55.786Z,4.17
2017-12-08T13:50:24.254Z,3.60
2017-12-08T13:52:51.773Z,3.50
2017-12-08T13:55:31.242Z,3.10
2017-12-08T13:57:58.766Z,2.60
2017-12-08T14:00:26.264Z,3.00
2017-12-08T14:02:53.789Z,3.40
2017-12-08T14:05:22.250Z,3.10
2017-12-08T14:07:49.769Z,3.13
2017-12-08T14:10:18.773Z,2.97
2017-12-08T14:12:47.053Z,3.17
2017-12-08T14:15:15.321Z,3.30
2017-12-08T14:17:43.609Z,3.70
2017-12-08T14:20:11.873Z,2.83
2017-12-08T14:22:40.133Z,3.10
2017-12-08T14:25:07.649Z,3.03
2017-12-08T14:27:35.145Z,2.90
2017-12-08T14:30:02.696Z,3.07
2017-12-08T14:32:30.174Z,3.33
2017-12-08T14:34:58.456Z,3.43
2017-12-08T14:37:26.733Z,2.70
2017-12-08T14:39:55.022Z,3.13
2017-12-08T14:42:22.522Z,2.90
2017-12-08T14:44:50.054Z,3.03
2017-12-08T14:47:17.598Z,2.97
2017-12-08T14:49:45.113Z,3.17
2017-12-08T14:52:14.163Z,2.80
2017-12-08T14:54:41.658Z,2.60
2017-12-08T14:57:09.957Z,2.37
2017-12-08T14:59:38.217Z,2.77
2017-12-08T15:02:05.749Z,3.23
2017-12-08T15:04:33.249Z,2.63
2017-12-08T15:07:01.536Z,2.60
2017-12-08T15:09:29.037Z,2.63
2017-12-08T15:11:58.506Z,2.50
2017-12-08T15:14:26.003Z,2.13
2017-12-08T15:16:55.493Z,2.40
2017-12-08T15:19:23.849Z,2.57
2017-12-08T15:21:51.361Z,2.50
2017-12-08T15:24:20.369Z,3.20
2017-12-08T15:26:49.599Z,2.50
2017-12-08T15:29:17.111Z,2.20
2017-12-08T15:31:47.056Z,2.47
2017-12-08T15:34:14.586Z,2.40
2017-12-08T15:36:42.085Z,2.67
2017-12-08T15:39:09.601Z,2.33
2017-12-08T15:41:38.547Z,2.40
2017-12-08T15:44:06.070Z,2.73
2017-12-08T15:46:34.504Z,2.40
2017-12-08T15:49:02.033Z,2.27
2017-12-08T15:51:29.530Z,1.60
2017-12-08T15:53:57.053Z,2.77
2017-12-08T15:56:24.550Z,2.43
2017-12-08T15:58:52.808Z,2.60
2017-12-08T16:01:20.330Z,2.33
2017-12-08T16:03:47.829Z,2.33
2017-12-08T16:06:16.865Z,2.10
2017-12-08T16:08:44.365Z,2.10
2017-12-08T16:11:11.881Z,1.93
2017-12-08T16:13:39.382Z,2.23
2017-12-08T16:16:06.923Z,2.20
2017-12-08T16:18:34.418Z,2.70
2017-12-08T16:21:03.681Z,2.10
2017-12-08T16:23:31.177Z,2.47
2017-12-08T16:26:00.614Z,2.67
2017-12-08T16:28:28.105Z,2.93
2017-12-08T16:30:55.621Z,1.87
2017-12-08T16:33:23.116Z,1.80
2017-12-08T16:35:50.637Z,1.83
2017-12-08T16:38:19.098Z,2.17
2017-12-08T16:40:47.369Z,1.70
2017-12-08T16:43:15.653Z,2.57
2017-12-08T16:45:43.916Z,2.23
2017-12-08T16:48:12.207Z,1.70
2017-12-08T16:50:39.713Z,1.87
2017-12-08T16:53:07.235Z,2.50
2017-12-08T16:55:35.706Z,2.50
2017-12-08T16:58:03.225Z,1.80
2017-12-08T17:00:30.756Z,2.20
2017-12-08T17:02:58.304Z,1.73
2017-12-08T17:05:25.786Z,2.63
2017-12-08T17:07:55.249Z,2.27
2017-12-08T17:10:22.750Z,2.00
2017-12-08T17:12:50.264Z,2.27
2017-12-08T17:15:17.780Z,2.30
2017-12-08T17:17:46.045Z,1.93
2017-12-08T17:20:15.517Z,1.77
2017-12-08T17:22:43.017Z,2.30
2017-12-08T17:25:11.306Z,1.83
2017-12-08T17:27:39.561Z,2.07
2017-12-08T17:30:07.858Z,2.60
2017-12-08T17:32:35.371Z,2.00
2017-12-08T17:35:02.899Z,2.20
2017-12-08T17:37:30.402Z,1.57
2017-12-08T17:39:57.917Z,1.97
2017-12-08T17:42:25.409Z,1.67
2017-12-08T17:44:52.917Z,2.03
2017-12-08T17:47:20.438Z,2.20
2017-12-08T17:49:48.696Z,1.87
2017-12-08T17:52:16.213Z,2.00
2017-12-08T17:54:44.684Z,2.10
2017-12-08T17:57:12.213Z,1.83
2017-12-08T17:59:40.548Z,1.83
2017-12-08T18:02:08.089Z,1.90
2017-12-08T18:04:35.582Z,2.00
2017-12-08T18:07:03.098Z,1.90
2017-12-08T18:09:30.592Z,2.30
2017-12-08T18:11:58.098Z,2.40
2017-12-08T18:14:25.622Z,2.47
2017-12-08T18:16:53.892Z,2.33
2017-12-08T18:19:21.430Z,1.93
2017-12-08T18:21:48.942Z,1.83
2017-12-08T18:24:18.415Z,1.80
2017-12-08T18:26:46.673Z,2.07
2017-12-08T18:29:14.205Z,1.73
2017-12-08T18:31:41.705Z,2.20
2017-12-08T18:34:09.989Z,2.50
2017-12-08T18:36:38.243Z,1.80
2017-12-08T18:39:05.744Z,1.57
2017-12-08T18:41:33.268Z,1.87
2017-12-08T18:44:00.771Z,1.67
2017-12-08T18:46:28.288Z,2.10
2017-12-08T18:48:56.548Z,2.57
2017-12-08T18:51:24.068Z,2.13
2017-12-08T18:53:51.561Z,1.90
2017-12-08T18:56:19.081Z,2.20
2017-12-08T18:58:46.581Z,2.13
2017-12-08T19:01:14.869Z,2.00
2017-12-08T19:03:43.138Z,1.90
2017-12-08T19:06:11.429Z,2.10
2017-12-08T19:08:39.690Z,1.90
2017-12-08T19:11:07.957Z,1.63
2017-12-08T19:13:36.245Z,2.10
2017-12-08T19:16:04.506Z,1.70
2017-12-08T19:18:32.029Z,1.83
2017-12-08T19:20:59.526Z,2.60
2017-12-08T19:23:27.818Z,2.20
2017-12-08T19:25:55.326Z,2.17
2017-12-08T19:28:22.846Z,2.13
2017-12-08T19:30:50.345Z,2.60
2017-12-08T19:33:17.869Z,2.30
2017-12-08T19:35:45.365Z,1.90
2017-12-08T19:38:12.885Z,1.90
2017-12-08T19:40:40.388Z,2.27
2017-12-08T19:43:07.881Z,2.03
2017-12-08T19:45:35.415Z,1.77
2017-12-08T19:48:03.705Z,3.00
2017-12-08T19:50:31.993Z,2.67
2017-12-08T19:52:59.510Z,2.23
2017-12-08T19:55:27.263Z,2.07
2017-12-08T19:57:55.091Z,2.27
2017-12-08T20:00:23.774Z,1.90
2017-12-08T20:02:51.639Z,2.37
2017-12-08T20:05:19.709Z,2.03
2017-12-08T20:07:47.677Z,2.10
2017-12-08T20:10:15.850Z,2.30
2017-12-08T20:12:43.818Z,1.70
2017-12-08T20:15:11.682Z,2.43
2017-12-08T20:17:39.651Z,2.10
2017-12-08T20:20:08.583Z,2.20
2017-12-08T20:22:37.154Z,2.50
2017-12-08T20:25:05.572Z,2.40
2017-12-08T20:27:33.096Z,2.20
2017-12-08T20:30:00.625Z,2.40
2017-12-08T20:32:28.121Z,2.40
2017-12-08T20:34:57.665Z,2.47
2017-12-08T20:37:26.649Z,1.60
2017-12-08T20:39:54.153Z,2.17
2017-12-08T20:42:21.653Z,3.33
2017-12-08T20:44:51.890Z,3.03
2017-12-08T20:47:19.564Z,3.00
2017-12-08T20:49:47.102Z,2.00
2017-12-08T20:52:14.988Z,2.20
2017-12-08T20:54:43.876Z,2.20
2017-12-08T20:57:11.509Z,2.30
2017-12-08T20:59:39.197Z,2.50
2017-12-08T21:02:06.777Z,2.20
2017-12-08T21:04:34.357Z,2.40
2017-12-08T21:07:02.654Z,2.47
2017-12-08T21:09:30.921Z,2.10
2017-12-08T21:11:59.208Z,2.33
2017-12-08T21:14:27.497Z,2.57
2017-12-08T21:16:55.013Z,2.40
2017-12-08T21:19:22.517Z,2.37
2017-12-08T21:21:50.045Z,2.50
2017-12-08T21:24:18.307Z,2.27
2017-12-08T21:26:45.802Z,2.10
2017-12-08T21:29:13.317Z,2.30
2017-12-08T21:31:40.814Z,2.10
2017-12-08T21:34:10.326Z,2.30
2017-12-08T21:36:37.826Z,2.10
2017-12-08T21:39:05.321Z,2.07
2017-12-08T21:41:32.850Z,2.27
2017-12-08T21:44:00.378Z,2.30
2017-12-08T21:46:27.876Z,2.20
2017-12-08T21:48:56.167Z,1.70
2017-12-08T21:51:26.253Z,1.83
2017-12-08T21:53:53.778Z,2.27
2017-12-08T21:56:21.281Z,2.13
2017-12-08T21:58:49.545Z,2.50
2017-12-08T22:01:17.070Z,1.80
2017-12-08T22:03:44.565Z,1.80
2017-12-08T22:06:14.042Z,2.10
2017-12-08T22:08:41.680Z,1.80
2017-12-08T22:11:09.177Z,2.10
2017-12-08T22:13:36.704Z,2.00
2017-12-08T22:16:04.193Z,2.37
2017-12-08T22:18:31.698Z,1.77
2017-12-08T22:20:59.210Z,1.70
2017-12-08T22:23:26.708Z,2.40
2017-12-08T22:25:54.225Z,2.27
2017-12-08T22:28:22.500Z,2.13
2017-12-08T22:30:49.998Z,1.83
2017-12-08T22:33:19.512Z,2.23
2017-12-08T22:35:47.005Z,2.80
2017-12-08T22:38:14.526Z,2.50
2017-12-08T22:40:42.077Z,2.00
2017-12-08T22:43:09.577Z,2.40
2017-12-08T22:45:37.089Z,2.00
2017-12-08T22:48:04.594Z,2.37
2017-12-08T22:50:32.200Z,2.10
2017-12-08T22:52:59.710Z,1.83
2017-12-08T22:55:29.173Z,2.23
2017-12-08T22:57:56.702Z,1.77
2017-12-08T23:00:27.841Z,1.73
2017-12-08T23:02:56.132Z,1.63
2017-12-08T23:05:23.625Z,1.43
2017-12-08T23:07:51.138Z,1.93
2017-12-08T23:10:20.345Z,1.80
2017-12-08T23:12:47.866Z,1.60
2017-12-08T23:15:15.362Z,1.70
2017-12-08T23:17:42.881Z,1.80
2017-12-08T23:20:11.145Z,1.67
2017-12-08T23:22:38.658Z,1.83
2017-12-08T23:25:06.158Z,1.37
2017-12-08T23:27:33.678Z,2.40
2017-12-08T23:30:01.181Z,1.83
2017-12-08T23:32:28.692Z,1.83
2017-12-08T23:34:56.190Z,1.77
2017-12-08T23:37:23.718Z,1.60
2017-12-08T23:39:51.221Z,1.83
2017-12-08T23:42:21.489Z,1.80
2017-12-08T23:44:49.030Z,1.70
2017-12-08T23:47:16.528Z,1.40
2017-12-08T23:49:44.045Z,1.90
2017-12-08T23:52:12.186Z,1.40
2017-12-08T23:54:39.708Z,1.60
2017-12-08T23:57:08.154Z,1.60
2017-12-08T23:59:35.671Z,1.43
